Time;durP1;ratioP1;P1;durP2;ratioP2;P2;SDS_P1;SDS_P2;PMS_P1;PMS_P2;Temp;Humidity;BMP_temperature;BMP_pressure;BME280_temperature;BME280_humidity;BME280_pressure;Samples;Min_cycle;Max_cycle;Signal;HPM_P1;HPM_P2
2023/10/23 00:01:57;;;;;;;18.65;11.40;;;10.30;99.90;;;;;;5093122;28;20024;-90
2023/10/23 00:04:22;;;;;;;17.40;10.07;;;10.40;99.90;;;;;;5093202;28;20050;-92
2023/10/23 00:06:48;;;;;;;18.45;10.25;;;10.40;99.90;;;;;;5092936;28;20043;-91
2023/10/23 00:09:14;;;;;;;15.40;10.18;;;10.30;99.90;;;;;;5093627;28;20097;-94
2023/10/23 00:11:39;;;;;;;18.50;9.57;;;10.40;99.90;;;;;;5093624;28;20024;-92
2023/10/23 00:14:05;;;;;;;14.23;9.10;;;10.40;99.90;;;;;;5092890;28;20028;-92
2023/10/23 00:16:30;;;;;;;18.13;9.85;;;10.40;99.90;;;;;;5093252;28;20090;-93
2023/10/23 00:18:56;;;;;;;13.75;8.70;;;10.40;99.90;;;;;;5087265;28;20021;-93
2023/10/23 00:21:22;;;;;;;18.52;9.73;;;10.40;99.90;;;;;;5084785;28;20081;-93
2023/10/23 00:23:47;;;;;;;19.30;10.20;;;10.40;99.90;;;;;;5072708;28;20028;-92
2023/10/23 00:26:13;;;;;;;20.40;9.75;;;10.40;99.90;;;;;;5088547;28;20561;-92
2023/10/23 00:28:39;;;;;;;13.52;8.98;;;10.40;99.90;;;;;;5092721;28;20139;-92
2023/10/23 00:31:04;;;;;;;15.98;8.50;;;10.30;99.90;;;;;;5092611;28;20036;-92
2023/10/23 00:33:30;;;;;;;17.35;8.70;;;10.30;99.90;;;;;;5093480;28;20028;-94
2023/10/23 00:35:55;;;;;;;16.15;10.65;;;10.30;99.90;;;;;;5093465;28;20024;-94
2023/10/23 00:38:21;;;;;;;14.68;9.02;;;10.30;99.90;;;;;;5093536;28;20077;-92
2023/10/23 00:40:47;;;;;;;13.43;8.43;;;10.20;99.90;;;;;;5094690;28;20475;-94
2023/10/23 00:43:22;;;;;;;16.30;8.77;;;10.20;99.90;;;;;;5093637;28;20039;-93
2023/10/23 00:45:56;;;;;;;21.67;10.18;;;10.20;99.90;;;;;;5093232;28;20028;-92
2023/10/23 00:48:23;;;;;;;17.35;9.80;;;10.20;99.90;;;;;;5092610;28;20036;-93
2023/10/23 00:50:50;;;;;;;16.75;10.00;;;10.10;99.90;;;;;;5093352;28;20031;-94
2023/10/23 00:53:22;;;;;;;17.77;9.63;;;10.10;99.90;;;;;;5092901;28;20042;-93
2023/10/23 00:55:50;;;;;;;20.55;10.80;;;10.10;99.90;;;;;;5092988;28;20102;-93
2023/10/23 00:58:18;;;;;;;20.65;11.27;;;10.10;99.90;;;;;;5092454;28;20027;-93
2023/10/23 01:00:44;;;;;;;18.13;11.07;;;10.10;99.90;;;;;;5092576;28;20544;-92
2023/10/23 01:03:10;;;;;;;18.90;10.63;;;10.10;99.90;;;;;;5092579;28;20035;-93
2023/10/23 01:05:39;;;;;;;19.60;10.60;;;10.10;99.90;;;;;;5092369;28;20030;-93
2023/10/23 01:08:05;;;;;;;19.77;11.68;;;10.00;99.90;;;;;;5093830;28;20024;-93
2023/10/23 01:10:35;;;;;;;22.98;13.00;;;10.00;99.90;;;;;;5092835;28;20060;-93
2023/10/23 01:13:06;;;;;;;23.30;12.90;;;10.00;99.90;;;;;;5092873;28;20099;-93
2023/10/23 01:15:31;;;;;;;18.67;11.82;;;9.90;99.90;;;;;;5092204;28;20020;-93
2023/10/23 01:17:59;;;;;;;18.85;10.38;;;9.90;99.90;;;;;;5092729;28;20024;-93
2023/10/23 01:20:26;;;;;;;18.95;9.75;;;9.90;99.90;;;;;;5092398;28;20459;-93
2023/10/23 01:22:58;;;;;;;18.63;10.00;;;9.80;99.90;;;;;;5092662;28;20032;-94
2023/10/23 01:25:24;;;;;;;18.02;10.43;;;9.80;99.90;;;;;;5092395;28;20035;-95
2023/10/23 01:27:54;;;;;;;15.13;8.57;;;9.80;99.90;;;;;;5091775;28;20490;-94
2023/10/23 01:30:20;;;;;;;15.60;9.25;;;9.80;99.90;;;;;;5093632;28;20044;-93
2023/10/23 01:32:45;;;;;;;15.10;9.60;;;9.80;99.90;;;;;;5092375;28;20085;-93
2023/10/23 01:35:11;;;;;;;16.63;8.65;;;9.80;99.90;;;;;;5093109;28;20024;-92
2023/10/23 01:37:37;;;;;;;17.33;10.43;;;9.80;99.90;;;;;;5110515;28;20043;-94
2023/10/23 01:40:04;;;;;;;18.30;9.10;;;9.80;99.90;;;;;;5113236;28;20087;-94
2023/10/23 01:42:33;;;;;;;18.38;9.75;;;9.80;99.90;;;;;;5100794;28;20111;-94
2023/10/23 01:44:59;;;;;;;27.10;11.68;;;9.70;99.90;;;;;;5096848;28;20020;-92
2023/10/23 01:47:25;;;;;;;25.63;10.63;;;9.70;99.90;;;;;;5097386;28;20031;-94
2023/10/23 01:49:51;;;;;;;19.38;10.80;;;9.70;99.90;;;;;;5096604;28;20584;-95
2023/10/23 01:52:18;;;;;;;15.30;8.50;;;9.70;99.90;;;;;;5096544;28;20032;-93
2023/10/23 01:54:43;;;;;;;18.70;10.65;;;9.60;99.90;;;;;;5096877;28;20031;-95
2023/10/23 01:57:10;;;;;;;20.08;10.45;;;9.60;99.90;;;;;;5095290;28;20407;-92
2023/10/23 01:59:36;;;;;;;18.70;9.77;;;9.60;99.90;;;;;;5096387;28;20035;-94
2023/10/23 02:02:02;;;;;;;15.02;9.30;;;9.50;99.90;;;;;;5095095;28;20491;-95
2023/10/23 02:04:28;;;;;;;20.67;9.95;;;9.50;99.90;;;;;;5095263;28;20475;-95
2023/10/23 02:06:54;;;;;;;19.38;9.95;;;9.50;99.90;;;;;;5096257;28;20027;-94
2023/10/23 02:09:19;;;;;;;17.40;10.70;;;9.50;99.90;;;;;;5095573;28;20035;-93
2023/10/23 02:11:46;;;;;;;18.45;9.85;;;9.40;99.90;;;;;;5095151;28;20036;-94
2023/10/23 02:14:12;;;;;;;17.48;9.45;;;9.40;99.90;;;;;;5095067;28;20027;-94
2023/10/23 02:16:37;;;;;;;14.88;9.40;;;9.40;99.90;;;;;;5094935;28;20020;-95
2023/10/23 02:19:03;;;;;;;18.58;10.68;;;9.40;99.90;;;;;;5095211;28;20078;-94
2023/10/23 02:21:29;;;;;;;15.23;9.35;;;9.40;99.90;;;;;;5095197;28;20514;-93
2023/10/23 02:23:55;;;;;;;16.13;9.50;;;9.40;99.90;;;;;;5095030;28;20118;-95
2023/10/23 02:26:21;;;;;;;16.05;9.30;;;9.30;99.90;;;;;;5078348;28;20032;-93
2023/10/23 02:28:47;;;;;;;16.75;8.98;;;9.30;99.90;;;;;;5095480;28;20128;-94
2023/10/23 02:31:12;;;;;;;16.17;8.90;;;9.30;99.90;;;;;;5095498;28;20057;-94
2023/10/23 02:33:38;;;;;;;17.90;8.57;;;9.30;99.90;;;;;;5098227;28;20035;-94
2023/10/23 02:36:05;;;;;;;18.85;9.63;;;9.30;99.90;;;;;;5097506;28;20024;-94
2023/10/23 02:38:31;;;;;;;17.85;9.32;;;9.30;99.90;;;;;;5096323;28;20474;-93
2023/10/23 02:40:57;;;;;;;21.20;9.90;;;9.30;99.90;;;;;;5097398;28;20034;-93
2023/10/23 02:43:22;;;;;;;18.50;8.52;;;9.30;99.90;;;;;;5095732;28;20031;-95
2023/10/23 02:45:48;;;;;;;18.60;8.80;;;9.20;99.90;;;;;;5095419;28;20020;-93
2023/10/23 02:48:16;;;;;;;18.35;9.65;;;9.30;99.90;;;;;;5095595;28;20040;-92
2023/10/23 02:50:43;;;;;;;23.08;10.43;;;9.30;99.90;;;;;;5095153;28;20091;-93
2023/10/23 02:53:08;;;;;;;20.25;9.50;;;9.30;99.90;;;;;;5095524;28;20024;-92
2023/10/23 02:55:34;;;;;;;18.92;10.10;;;9.30;99.90;;;;;;5095722;28;20034;-93
2023/10/23 02:58:00;;;;;;;25.35;9.90;;;9.30;99.90;;;;;;5095330;28;20051;-92
2023/10/23 03:00:26;;;;;;;22.25;10.45;;;9.30;99.90;;;;;;5094974;28;20031;-94
2023/10/23 03:02:51;;;;;;;23.00;10.98;;;9.30;99.90;;;;;;5101074;28;20020;-93
2023/10/23 03:05:17;;;;;;;21.90;11.75;;;9.30;99.90;;;;;;5116254;28;20028;-94
2023/10/23 03:07:43;;;;;;;25.08;11.68;;;9.40;99.90;;;;;;5115716;28;20030;-93
2023/10/23 03:10:09;;;;;;;28.02;12.20;;;9.40;99.90;;;;;;5114532;28;20104;-93
2023/10/23 03:12:38;;;;;;;27.70;11.95;;;9.40;99.90;;;;;;5115813;28;20040;-92
2023/10/23 03:15:04;;;;;;;23.15;11.05;;;9.40;99.90;;;;;;5114593;28;20047;-93
2023/10/23 03:17:30;;;;;;;27.70;11.15;;;9.40;99.90;;;;;;5111417;28;20474;-93
2023/10/23 03:19:56;;;;;;;26.30;12.85;;;9.40;99.90;;;;;;5098958;28;20024;-93
2023/10/23 03:22:22;;;;;;;25.92;12.90;;;9.40;99.90;;;;;;5100073;28;20023;-95
2023/10/23 03:24:47;;;;;;;29.45;12.15;;;9.40;99.90;;;;;;5097627;28;20455;-93
2023/10/23 03:27:13;;;;;;;20.35;9.23;;;9.40;99.90;;;;;;5096903;28;20042;-93
2023/10/23 03:29:43;;;;;;;30.92;11.77;;;9.40;99.90;;;;;;5097639;28;20093;-94
2023/10/23 03:32:08;;;;;;;29.27;12.88;;;9.40;99.90;;;;;;5096051;28;20035;-93
2023/10/23 03:34:34;;;;;;;33.63;13.48;;;9.40;99.90;;;;;;5097293;28;20024;-93
2023/10/23 03:37:00;;;;;;;26.65;12.50;;;9.40;99.90;;;;;;5095836;28;20051;-94
2023/10/23 03:39:25;;;;;;;20.98;10.70;;;9.40;99.90;;;;;;5096096;28;20111;-93
2023/10/23 03:41:51;;;;;;;23.38;11.98;;;9.40;99.90;;;;;;5094096;28;20055;-92
2023/10/23 03:44:17;;;;;;;22.70;10.55;;;9.50;99.90;;;;;;5094796;28;20042;-93
2023/10/23 03:46:42;;;;;;;26.73;12.05;;;9.40;99.90;;;;;;5095417;28;20038;-92
2023/10/23 03:49:08;;;;;;;22.75;10.02;;;9.50;99.90;;;;;;5095113;28;20036;-92
2023/10/23 03:51:33;;;;;;;23.25;10.18;;;9.50;99.90;;;;;;5095637;28;20039;-94
2023/10/23 03:53:59;;;;;;;21.55;10.13;;;9.40;99.90;;;;;;5094119;28;20020;-94
2023/10/23 03:56:25;;;;;;;23.15;11.63;;;9.40;99.90;;;;;;5094677;28;20458;-93
2023/10/23 03:58:51;;;;;;;23.75;11.07;;;9.40;99.90;;;;;;5094313;28;20035;-93
2023/10/23 04:01:16;;;;;;;22.80;10.60;;;9.40;99.90;;;;;;5094063;28;20035;-93
2023/10/23 04:03:42;;;;;;;24.42;10.18;;;9.40;99.90;;;;;;5094065;28;20131;-93
2023/10/23 04:06:09;;;;;;;22.05;10.15;;;9.40;99.90;;;;;;5093574;28;20020;-93
2023/10/23 04:08:35;;;;;;;29.80;11.90;;;9.30;99.90;;;;;;5093686;28;20024;-93
2023/10/23 04:11:01;;;;;;;22.75;10.80;;;9.30;99.90;;;;;;5094146;28;20035;-93
2023/10/23 04:13:26;;;;;;;22.77;12.25;;;9.30;99.90;;;;;;5093992;28;20053;-93
2023/10/23 04:15:57;;;;;;;21.45;11.20;;;9.30;99.90;;;;;;5094213;28;20036;-92
2023/10/23 04:18:24;;;;;;;44.83;11.07;;;9.30;99.90;;;;;;5092605;28;20034;-92
2023/10/23 04:20:51;;;;;;;27.85;10.32;;;9.40;99.90;;;;;;5094148;28;20035;-92
2023/10/23 04:23:16;;;;;;;25.55;11.07;;;9.30;99.90;;;;;;5093691;28;20051;-94
2023/10/23 04:25:42;;;;;;;24.35;9.88;;;9.30;99.90;;;;;;5093619;28;20028;-93
2023/10/23 04:28:08;;;;;;;24.65;11.25;;;9.30;99.90;;;;;;5094191;28;20127;-93
2023/10/23 04:30:33;;;;;;;21.20;10.10;;;9.20;99.90;;;;;;5093574;28;20035;-93
2023/10/23 04:32:59;;;;;;;26.08;10.93;;;9.20;99.90;;;;;;5094744;28;20115;-93
2023/10/23 04:35:24;;;;;;;25.98;11.50;;;9.20;99.90;;;;;;5093740;28;20028;-93
2023/10/23 04:37:50;;;;;;;29.75;10.70;;;9.20;99.90;;;;;;5094075;28;20016;-92
2023/10/23 04:40:16;;;;;;;30.63;12.02;;;9.20;99.90;;;;;;5094693;28;20028;-92
2023/10/23 04:42:41;;;;;;;32.30;11.05;;;9.20;99.90;;;;;;5094096;28;20027;-94
2023/10/23 04:45:07;;;;;;;35.15;11.20;;;9.20;99.90;;;;;;5093787;28;20029;-93
2023/10/23 04:47:33;;;;;;;43.25;12.48;;;9.10;99.90;;;;;;5093699;28;20482;-94
2023/10/23 04:49:59;;;;;;;49.45;11.40;;;9.10;99.90;;;;;;5094474;28;20119;-93
2023/10/23 04:52:24;;;;;;;54.13;11.63;;;9.10;99.90;;;;;;5093337;28;20107;-94
2023/10/23 04:54:50;;;;;;;52.47;11.23;;;9.10;99.90;;;;;;5093208;28;20054;-92
2023/10/23 04:57:16;;;;;;;45.92;11.23;;;9.10;99.90;;;;;;5093595;28;20494;-93
2023/10/23 04:59:41;;;;;;;50.20;13.52;;;9.10;99.90;;;;;;5093870;28;20081;-93
2023/10/23 05:02:07;;;;;;;110.22;13.98;;;9.00;99.90;;;;;;5094170;28;20032;-93
2023/10/23 05:04:33;;;;;;;58.83;11.75;;;9.00;99.90;;;;;;5093771;28;20125;-93
2023/10/23 05:06:59;;;;;;;71.85;11.48;;;9.00;99.90;;;;;;5094170;28;20028;-94
2023/10/23 05:09:24;;;;;;;84.13;13.68;;;9.00;99.90;;;;;;5094058;28;20493;-93
2023/10/23 05:11:50;;;;;;;103.25;12.48;;;8.90;99.90;;;;;;5093976;28;20039;-94
2023/10/23 05:14:16;;;;;;;131.30;14.60;;;8.90;99.90;;;;;;5093105;28;20470;-93
2023/10/23 05:16:42;;;;;;;30.25;10.82;;;8.90;99.90;;;;;;5093769;28;20020;-93
2023/10/23 05:19:10;;;;;;;47.08;10.18;;;8.90;99.90;;;;;;5096758;28;20436;-93
2023/10/23 05:21:37;;;;;;;33.50;10.00;;;8.90;99.90;;;;;;5098106;28;20138;-93
2023/10/23 05:24:03;;;;;;;41.67;10.48;;;8.90;99.90;;;;;;5096727;28;20020;-93
2023/10/23 05:26:28;;;;;;;56.47;10.40;;;8.90;99.90;;;;;;5103065;28;20071;-93
2023/10/23 05:28:54;;;;;;;94.40;10.48;;;8.80;99.90;;;;;;5102980;28;20407;-94
2023/10/23 05:31:20;;;;;;;33.45;9.27;;;8.80;99.90;;;;;;5097644;28;20020;-93
2023/10/23 05:33:46;;;;;;;59.75;10.18;;;8.80;99.90;;;;;;5097176;28;20020;-93
2023/10/23 05:36:11;;;;;;;26.77;8.98;;;8.70;99.90;;;;;;5096618;28;20501;-94
2023/10/23 05:38:38;;;;;;;23.05;7.95;;;8.80;99.90;;;;;;5096730;28;20074;-92
2023/10/23 05:41:10;;;;;;;18.02;7.35;;;8.70;99.90;;;;;;5096736;28;20024;-93
2023/10/23 05:43:37;;;;;;;20.23;7.45;;;8.60;99.90;;;;;;5096924;28;20048;-95
2023/10/23 05:46:03;;;;;;;21.10;7.40;;;8.60;99.90;;;;;;5097144;28;20052;-93
2023/10/23 05:48:30;;;;;;;15.05;6.82;;;8.60;99.90;;;;;;5097193;28;20036;-92
2023/10/23 05:51:05;;;;;;;31.67;8.18;;;8.60;99.90;;;;;;5097151;28;20039;-94
2023/10/23 05:53:32;;;;;;;20.05;7.85;;;8.60;99.90;;;;;;5097314;28;20025;-93
2023/10/23 05:56:05;;;;;;;18.52;7.65;;;8.60;99.90;;;;;;5097892;28;20077;-92
2023/10/23 05:58:32;;;;;;;12.50;5.85;;;8.60;99.90;;;;;;5096299;28;20073;-94
2023/10/23 06:01:09;;;;;;;30.10;8.23;;;8.60;99.90;;;;;;5096017;28;20028;-92
2023/10/23 06:03:36;;;;;;;32.58;8.40;;;8.60;99.90;;;;;;5095660;28;20055;-92
2023/10/23 06:06:02;;;;;;;24.83;8.15;;;8.60;99.90;;;;;;5096060;28;20051;-93
2023/10/23 06:08:27;;;;;;;24.75;7.50;;;8.60;99.90;;;;;;5095475;28;20583;-92
2023/10/23 06:10:53;;;;;;;21.50;6.43;;;8.60;99.90;;;;;;5096220;28;20228;-94
2023/10/23 06:13:20;;;;;;;16.88;6.78;;;8.60;99.90;;;;;;5095829;28;20489;-93
2023/10/23 06:15:47;;;;;;;16.25;6.43;;;8.60;99.90;;;;;;5096073;28;20123;-93
2023/10/23 06:18:12;;;;;;;35.85;9.45;;;8.60;99.90;;;;;;5095541;28;20508;-94
2023/10/23 06:20:38;;;;;;;22.33;8.27;;;8.60;99.90;;;;;;5095361;28;20111;-95
2023/10/23 06:23:04;;;;;;;31.60;8.10;;;8.60;99.90;;;;;;5095547;28;20032;-93
2023/10/23 06:25:30;;;;;;;24.63;8.00;;;8.60;99.90;;;;;;5098656;28;20089;-94
2023/10/23 06:27:57;;;;;;;39.42;7.95;;;8.60;99.90;;;;;;5097748;28;20044;-92
2023/10/23 06:30:22;;;;;;;48.38;8.45;;;8.60;99.90;;;;;;5096986;28;20028;-95
2023/10/23 06:32:48;;;;;;;92.35;10.60;;;8.60;99.90;;;;;;5094946;28;20049;-92
2023/10/23 06:35:15;;;;;;;84.53;11.10;;;8.60;99.90;;;;;;5096796;28;20127;-93
2023/10/23 06:37:41;;;;;;;51.42;8.50;;;8.50;99.90;;;;;;5091356;28;20013;-93
2023/10/23 06:40:07;;;;;;;90.22;10.65;;;8.50;99.90;;;;;;5084574;28;20035;-94
2023/10/23 06:42:33;;;;;;;94.88;9.32;;;8.50;99.90;;;;;;5084768;28;20472;-94
2023/10/23 06:44:59;;;;;;;33.45;7.60;;;8.50;99.90;;;;;;5100720;28;20021;-91
2023/10/23 06:47:25;;;;;;;23.05;7.55;;;8.50;99.90;;;;;;5083778;28;20023;-93
2023/10/23 06:49:51;;;;;;;21.02;6.78;;;8.40;99.90;;;;;;5084187;28;20035;-93
2023/10/23 06:52:16;;;;;;;26.88;8.25;;;8.40;99.90;;;;;;5081965;28;20417;-94
2023/10/23 06:54:42;;;;;;;20.60;7.35;;;8.40;99.90;;;;;;5083580;28;20031;-93
2023/10/23 06:57:08;;;;;;;21.17;6.15;;;8.40;99.90;;;;;;5083326;28;20027;-93
2023/10/23 06:59:37;;;;;;;18.10;7.07;;;8.40;99.90;;;;;;5084661;28;20044;-93
2023/10/23 07:02:03;;;;;;;19.33;7.07;;;8.40;99.90;;;;;;5091390;28;20020;-92
2023/10/23 07:04:29;;;;;;;25.88;7.50;;;8.40;99.90;;;;;;5095946;28;20035;-94
2023/10/23 07:06:55;;;;;;;69.18;9.70;;;8.40;99.90;;;;;;5094105;28;20058;-93
2023/10/23 07:09:21;;;;;;;16.50;6.07;;;8.40;99.90;;;;;;5094290;28;20619;-94
2023/10/23 07:11:48;;;;;;;17.00;6.55;;;8.40;99.90;;;;;;5077168;28;20035;-92
2023/10/23 07:14:14;;;;;;;20.23;8.15;;;8.40;99.90;;;;;;5093939;28;20073;-94
2023/10/23 07:16:40;;;;;;;20.23;8.55;;;8.40;99.90;;;;;;5094026;28;20036;-93
2023/10/23 07:19:05;;;;;;;17.83;7.22;;;8.40;99.90;;;;;;5091132;28;20496;-95
2023/10/23 07:21:31;;;;;;;25.58;7.40;;;8.50;99.90;;;;;;5094021;28;20046;-94
2023/10/23 07:23:57;;;;;;;22.95;9.40;;;8.50;99.90;;;;;;5095312;28;20058;-94
2023/10/23 07:26:23;;;;;;;22.98;8.30;;;8.50;99.90;;;;;;5086172;28;20077;-94
2023/10/23 07:28:48;;;;;;;19.85;8.65;;;8.50;99.90;;;;;;5073967;28;20051;-94
2023/10/23 07:31:14;;;;;;;20.73;7.53;;;8.50;99.90;;;;;;5074303;28;20052;-95
2023/10/23 07:33:40;;;;;;;20.60;6.25;;;8.50;99.90;;;;;;5073662;28;20501;-92
2023/10/23 07:36:07;;;;;;;17.73;6.22;;;8.50;99.90;;;;;;5057542;28;20060;-95
2023/10/23 07:38:33;;;;;;;18.98;8.02;;;8.40;99.90;;;;;;5074703;28;20050;-93
2023/10/23 07:41:00;;;;;;;18.10;7.75;;;8.50;99.90;;;;;;5072007;28;20116;-94
2023/10/23 07:43:27;;;;;;;26.90;7.90;;;8.50;99.90;;;;;;5072151;28;20024;-94
2023/10/23 07:45:54;;;;;;;28.50;7.40;;;8.50;99.90;;;;;;5071959;28;20039;-93
2023/10/23 07:48:21;;;;;;;21.77;7.28;;;8.50;99.90;;;;;;5072601;28;20032;-94
2023/10/23 07:50:47;;;;;;;23.27;7.95;;;8.50;99.90;;;;;;5073689;28;20024;-93
2023/10/23 07:53:12;;;;;;;21.92;8.13;;;8.50;99.90;;;;;;5088021;28;20021;-93
2023/10/23 07:55:38;;;;;;;13.95;6.22;;;8.50;99.90;;;;;;5094722;28;20028;-93
2023/10/23 07:58:03;;;;;;;14.05;6.10;;;8.50;99.90;;;;;;5092969;28;20043;-92
2023/10/23 08:00:29;;;;;;;17.60;6.78;;;8.60;99.90;;;;;;5084070;28;20062;-93
2023/10/23 08:02:55;;;;;;;21.00;9.23;;;8.70;99.90;;;;;;5085036;28;20024;-92
2023/10/23 08:05:21;;;;;;;19.50;7.18;;;8.80;99.90;;;;;;5081248;28;20044;-94
2023/10/23 08:07:46;;;;;;;23.52;8.60;;;8.90;99.90;;;;;;5077212;28;20067;-92
2023/10/23 08:10:13;;;;;;;18.13;7.03;;;8.90;99.90;;;;;;5073501;28;20028;-92
2023/10/23 08:12:39;;;;;;;16.30;7.03;;;9.00;99.90;;;;;;5073629;28;20029;-92
2023/10/23 08:15:05;;;;;;;21.10;8.40;;;9.00;99.90;;;;;;5082565;28;20039;-92
2023/10/23 08:17:31;;;;;;;20.10;8.50;;;9.10;99.90;;;;;;5092795;28;20024;-91
2023/10/23 08:19:57;;;;;;;14.05;6.55;;;9.20;99.90;;;;;;5087546;28;20510;-95
2023/10/23 08:22:23;;;;;;;15.13;7.40;;;9.20;99.90;;;;;;5081465;28;20028;-94
2023/10/23 08:24:49;;;;;;;21.00;10.00;;;9.30;99.90;;;;;;5077305;28;20031;-93
2023/10/23 08:27:14;;;;;;;18.33;8.13;;;9.30;99.90;;;;;;5074116;28;20123;-93
2023/10/23 08:29:40;;;;;;;15.35;6.40;;;9.40;99.90;;;;;;5073338;28;20036;-93
2023/10/23 08:32:06;;;;;;;19.77;7.05;;;9.40;99.90;;;;;;5073231;28;20174;-94
2023/10/23 08:34:31;;;;;;;17.00;6.90;;;9.40;99.90;;;;;;5082016;28;20020;-92
2023/10/23 08:36:57;;;;;;;16.17;6.85;;;9.50;99.90;;;;;;5073230;28;20025;-93
2023/10/23 08:39:24;;;;;;;17.08;6.65;;;9.50;99.90;;;;;;5073050;28;20031;-93
2023/10/23 08:41:50;;;;;;;14.55;7.15;;;9.60;99.90;;;;;;5076737;28;20107;-96
2023/10/23 08:44:16;;;;;;;14.77;6.80;;;9.60;99.90;;;;;;5076636;28;20048;-95
2023/10/23 08:46:43;;;;;;;17.77;6.93;;;9.70;99.90;;;;;;5079056;28;20088;-94
2023/10/23 08:49:08;;;;;;;17.25;6.75;;;9.80;99.90;;;;;;5076693;28;20040;-96
2023/10/23 08:51:35;;;;;;;13.80;6.32;;;9.80;99.90;;;;;;5083342;28;20091;-95
2023/10/23 08:54:11;;;;;;;18.08;6.75;;;9.90;99.90;;;;;;5084175;28;20134;-94
2023/10/23 08:56:39;;;;;;;22.85;8.80;;;10.00;99.90;;;;;;5120608;28;20026;-94
2023/10/23 08:59:05;;;;;;;19.67;7.68;;;10.00;99.90;;;;;;5113326;28;20035;-94
2023/10/23 09:01:36;;;;;;;16.75;7.40;;;10.10;99.90;;;;;;5116605;28;20039;-94
2023/10/23 09:04:02;;;;;;;16.65;7.40;;;10.10;99.90;;;;;;5110579;28;20028;-94
2023/10/23 09:06:28;;;;;;;28.45;10.18;;;10.10;99.90;;;;;;5105867;28;20020;-94
2023/10/23 09:08:55;;;;;;;39.53;13.88;;;10.20;99.90;;;;;;5093312;28;20028;-95
2023/10/23 09:11:23;;;;;;;21.52;7.80;;;10.30;99.90;;;;;;5093815;28;20024;-95
2023/10/23 09:13:49;;;;;;;16.08;7.95;;;10.30;99.90;;;;;;5092498;28;20031;-95
2023/10/23 09:16:14;;;;;;;15.90;6.68;;;10.40;99.90;;;;;;5091528;28;20028;-95
2023/10/23 09:18:51;;;;;;;18.42;6.72;;;10.40;99.90;;;;;;5087760;28;20028;-95
2023/10/23 09:21:17;;;;;;;13.40;6.13;;;10.40;99.90;;;;;;5090131;28;20065;-94
2023/10/23 09:23:53;;;;;;;14.82;5.50;;;10.50;99.90;;;;;;5090368;28;20028;-95
2023/10/23 09:26:22;;;;;;;13.55;5.57;;;10.60;99.90;;;;;;5090130;28;20128;-93
2023/10/23 09:28:49;;;;;;;12.98;5.50;;;10.70;99.90;;;;;;5086132;28;20036;-94
2023/10/23 09:31:16;;;;;;;14.85;6.00;;;10.80;99.90;;;;;;5087678;28;20028;-94
2023/10/23 09:33:48;;;;;;;18.00;6.80;;;10.90;99.90;;;;;;5087609;28;20025;-93
2023/10/23 09:36:14;;;;;;;15.98;6.43;;;11.00;99.90;;;;;;5088248;28;20024;-94
2023/10/23 09:38:42;;;;;;;14.48;6.25;;;11.00;99.90;;;;;;5089588;28;20027;-94
2023/10/23 09:41:12;;;;;;;17.45;6.15;;;11.10;99.90;;;;;;5086593;28;20020;-93
2023/10/23 09:43:47;;;;;;;13.15;5.97;;;11.10;99.90;;;;;;5082866;28;20029;-94
2023/10/23 09:46:14;;;;;;;16.95;6.03;;;11.20;99.90;;;;;;5097945;28;20020;-94
2023/10/23 09:48:44;;;;;;;14.95;7.07;;;11.30;99.90;;;;;;5095097;28;20048;-94
2023/10/23 09:51:19;;;;;;;29.75;11.68;;;11.30;99.90;;;;;;5093980;28;20044;-96
2023/10/23 09:53:49;;;;;;;26.08;8.90;;;11.30;99.90;;;;;;5088562;28;20418;-95
2023/10/23 09:56:21;;;;;;;27.38;11.82;;;11.40;99.90;;;;;;5089603;28;20039;-96
2023/10/23 09:59:00;;;;;;;22.23;8.30;;;11.50;99.90;;;;;;5090166;28;20039;-94
2023/10/23 10:01:36;;;;;;;21.15;7.03;;;11.60;99.90;;;;;;5089742;28;20016;-95
2023/10/23 10:04:22;;;;;;;19.02;6.07;;;11.70;99.90;;;;;;5100418;28;20037;-94
2023/10/23 10:06:54;;;;;;;13.13;7.00;;;11.90;99.90;;;;;;5104751;28;20069;-94
2023/10/23 10:09:27;;;;;;;18.50;5.70;;;12.00;99.90;;;;;;5098899;28;20356;-96
2023/10/23 10:11:55;;;;;;;14.18;4.80;;;12.10;99.90;;;;;;5071678;28;20044;-95
2023/10/23 10:14:23;;;;;;;11.38;4.38;;;12.20;99.90;;;;;;5109692;28;20062;-96
2023/10/23 10:16:50;;;;;;;13.77;5.03;;;12.30;99.90;;;;;;5099671;28;20059;-96
2023/10/23 10:19:16;;;;;;;13.52;4.50;;;12.40;99.90;;;;;;5086107;28;20043;-96
2023/10/23 10:22:04;;;;;;;16.73;5.30;;;12.40;99.90;;;;;;5103451;28;20035;-94
2023/10/23 10:24:32;;;;;;;15.35;5.63;;;12.50;99.90;;;;;;5112540;28;20012;-94
2023/10/23 10:27:00;;;;;;;8.30;3.95;;;12.70;99.90;;;;;;5117549;28;20008;-93
2023/10/23 10:29:26;;;;;;;11.73;4.85;;;12.90;99.90;;;;;;5116934;28;20038;-95
2023/10/23 10:32:06;;;;;;;14.70;4.40;;;13.00;99.90;;;;;;5112031;28;20057;-95
2023/10/23 10:34:53;;;;;;;11.52;4.40;;;13.10;99.90;;;;;;5115236;28;20131;-95
2023/10/23 10:37:22;;;;;;;15.55;5.35;;;13.20;99.90;;;;;;5117457;28;20077;-95
2023/10/23 10:39:50;;;;;;;8.55;3.97;;;13.40;99.90;;;;;;5117482;28;20020;-95
2023/10/23 10:42:17;;;;;;;12.60;4.18;;;13.70;99.90;;;;;;5116356;28;20094;-94
2023/10/23 10:44:57;;;;;;;17.15;4.40;;;13.80;99.90;;;;;;5115847;28;20024;-92
2023/10/23 10:47:38;;;;;;;;;;;13.70;99.90;;;;;;5113687;28;20017;-96
2023/10/23 10:50:05;;;;;;;10.13;4.40;;;13.70;99.90;;;;;;5110717;28;19925;-91
2023/10/23 10:52:35;;;;;;;12.63;5.18;;;13.60;99.90;;;;;;5105733;28;20028;-93
2023/10/23 10:55:05;;;;;;;13.48;4.78;;;13.60;99.90;;;;;;5104879;28;20032;-93
2023/10/23 10:57:32;;;;;;;13.73;4.87;;;13.60;99.90;;;;;;5116872;28;20054;-93
2023/10/23 10:59:58;;;;;;;17.30;4.88;;;13.60;99.90;;;;;;5117154;28;20099;-93
2023/10/23 11:02:24;;;;;;;13.65;4.30;;;13.50;99.90;;;;;;5118569;28;20060;-95
2023/10/23 11:04:50;;;;;;;11.32;4.03;;;13.40;99.90;;;;;;5115590;28;20029;-94
2023/10/23 11:07:27;;;;;;;13.85;4.13;;;13.30;99.90;;;;;;5117061;28;20034;-94
2023/10/23 11:10:00;;;;;;;10.05;4.20;;;13.20;99.90;;;;;;5118968;28;20084;-93
2023/10/23 11:12:26;;;;;;;16.13;4.95;;;13.20;99.90;;;;;;5118604;28;20036;-94
2023/10/23 11:14:54;;;;;;;12.23;3.97;;;13.30;99.90;;;;;;5118939;28;20020;-92
2023/10/23 11:17:20;;;;;;;16.25;4.93;;;13.30;99.90;;;;;;5118444;28;20446;-92
2023/10/23 11:19:46;;;;;;;10.38;4.88;;;13.40;99.90;;;;;;5118488;28;20024;-93
2023/10/23 11:22:15;;;;;;;13.77;4.68;;;13.60;99.90;;;;;;5118720;28;20015;-92
2023/10/23 11:24:41;;;;;;;11.40;4.60;;;13.80;99.90;;;;;;5118356;28;20084;-92
2023/10/23 11:27:12;;;;;;;17.83;5.50;;;14.00;99.90;;;;;;5101126;28;20036;-91
2023/10/23 11:29:48;;;;;;;12.40;4.47;;;14.20;99.90;;;;;;5118139;28;20024;-92
2023/10/23 11:32:15;;;;;;;11.50;4.32;;;14.30;99.90;;;;;;5118498;28;20039;-92
2023/10/23 11:34:41;;;;;;;14.27;5.20;;;14.50;99.90;;;;;;5118087;28;20043;-93
2023/10/23 11:37:10;;;;;;;15.32;4.93;;;14.70;99.90;;;;;;5117336;28;20009;-95
2023/10/23 11:39:38;;;;;;;10.63;4.88;;;14.80;99.90;;;;;;5115235;28;20016;-92
2023/10/23 11:42:07;;;;;;;13.18;4.45;;;14.90;99.90;;;;;;5108519;28;20025;-90
2023/10/23 11:44:34;;;;;;;15.43;5.60;;;15.00;99.90;;;;;;5105887;28;20016;-92
2023/10/23 11:47:04;;;;;;;14.70;5.65;;;15.20;99.90;;;;;;5117730;28;20052;-93
2023/10/23 11:49:30;;;;;;;13.30;4.93;;;15.30;99.90;;;;;;5117805;28;20024;-90
2023/10/23 11:52:00;;;;;;;12.57;4.22;;;15.30;99.90;;;;;;5117379;28;20035;-94
2023/10/23 11:54:27;;;;;;;;;;;15.20;99.90;;;;;;5111695;28;20024;-91
2023/10/23 11:56:56;;;;;;;9.48;4.70;;;15.20;99.90;;;;;;5117146;28;19900;-95
2023/10/23 11:59:23;;;;;;;12.55;4.55;;;15.10;99.90;;;;;;5117085;28;20037;-93
2023/10/23 12:01:49;;;;;;;12.02;4.50;;;15.00;99.90;;;;;;5101105;28;20034;-93
2023/10/23 12:04:16;;;;;;;14.30;5.47;;;15.00;99.90;;;;;;5103101;28;20055;-95
2023/10/23 12:06:42;;;;;;;16.48;6.05;;;15.00;99.90;;;;;;5088040;28;20013;-93
2023/10/23 12:09:11;;;;;;;16.73;5.95;;;14.80;99.90;;;;;;5096545;28;20047;-94
2023/10/23 12:11:37;;;;;;;16.05;6.18;;;14.70;99.90;;;;;;5110600;28;20028;-95
2023/10/23 12:14:03;;;;;;;20.60;6.60;;;14.50;99.90;;;;;;5107111;28;20036;-95
2023/10/23 12:16:32;;;;;;;19.45;7.00;;;14.40;99.90;;;;;;5116385;28;20016;-92
2023/10/23 12:18:59;;;;;;;19.73;7.28;;;14.30;99.90;;;;;;5117549;28;20028;-93
2023/10/23 12:21:26;;;;;;;17.45;7.38;;;14.30;99.90;;;;;;5097647;28;20052;-92
2023/10/23 12:23:53;;;;;;;12.48;6.60;;;14.20;99.90;;;;;;5098281;28;20016;-94
2023/10/23 12:26:27;;;;;;;15.93;7.32;;;14.20;99.90;;;;;;5110669;28;20076;-93
2023/10/23 12:28:53;;;;;;;14.50;6.72;;;14.10;99.90;;;;;;5114918;28;20051;-96
2023/10/23 12:31:22;;;;;;;17.02;7.00;;;13.90;99.90;;;;;;5112415;28;20051;-94
2023/10/23 12:33:50;;;;;;;17.08;7.70;;;13.80;99.90;;;;;;5114478;28;20028;-93
2023/10/23 12:36:16;;;;;;;17.65;7.95;;;13.60;99.90;;;;;;5115280;28;20021;-93
2023/10/23 12:38:41;;;;;;;18.05;8.48;;;13.40;99.90;;;;;;5115004;28;20545;-93
2023/10/23 12:41:07;;;;;;;17.58;8.52;;;13.20;99.90;;;;;;5112545;28;20031;-93